createdAt,value
2023-02-19T00:03:14.430Z,1.57
2023-02-19T00:08:17.048Z,1.48
2023-02-19T00:13:19.809Z,1.40
2023-02-19T00:18:23.325Z,1.33
2023-02-19T00:23:27.059Z,1.28
2023-02-19T00:28:30.780Z,1.24
2023-02-19T00:33:36.504Z,1.21
2023-02-19T00:38:40.508Z,1.19
2023-02-19T00:43:43.184Z,1.20
2023-02-19T00:48:46.675Z,1.17
2023-02-19T00:53:49.641Z,1.10
2023-02-19T00:58:52.613Z,1.01
2023-02-19T01:03:55.430Z,0.94
2023-02-19T01:08:58.832Z,0.87
2023-02-19T01:14:02.346Z,0.81
2023-02-19T01:19:04.962Z,0.80
2023-02-19T01:24:07.609Z,0.81
2023-02-19T01:29:10.520Z,0.82
2023-02-19T01:34:13.157Z,0.82
2023-02-19T01:39:15.842Z,0.82
2023-02-19T01:44:18.511Z,0.84
2023-02-19T01:49:27.115Z,0.89
2023-02-19T01:54:34.804Z,0.89
2023-02-19T01:59:38.226Z,0.87
2023-02-19T02:04:41.005Z,0.91
2023-02-19T02:09:59.517Z,0.96
2023-02-19T02:15:03.120Z,1.01
2023-02-19T02:20:36.540Z,1.08
2023-02-19T02:25:55.265Z,1.17
2023-02-19T02:31:04.409Z,1.26
2023-02-19T02:36:14.712Z,1.33
2023-02-19T02:41:17.358Z,1.43
2023-02-19T02:46:28.175Z,1.48
2023-02-19T02:51:36.259Z,1.51
2023-02-19T02:56:41.333Z,1.54
2023-02-19T03:02:05.875Z,1.59
2023-02-19T03:07:10.448Z,1.65
2023-02-19T03:12:30.501Z,1.71
2023-02-19T03:17:57.874Z,1.78
2023-02-19T03:23:02.078Z,1.84
2023-02-19T03:28:08.790Z,1.87
2023-02-19T03:33:19.064Z,1.84
2023-02-19T03:38:40.716Z,1.81
2023-02-19T03:43:50.800Z,1.80
2023-02-19T03:49:00.107Z,1.83
2023-02-19T03:54:09.270Z,1.88
2023-02-19T03:59:17.358Z,1.93
2023-02-19T04:04:36.479Z,2.00
2023-02-19T04:09:46.820Z,2.04
2023-02-19T04:14:54.790Z,2.06
2023-02-19T04:20:00.817Z,2.06
2023-02-19T04:25:05.245Z,2.07
2023-02-19T04:30:11.282Z,2.09
2023-02-19T04:35:13.979Z,2.11
2023-02-19T04:40:17.229Z,2.13
2023-02-19T04:45:19.779Z,2.11
2023-02-19T04:50:23.310Z,2.06
2023-02-19T04:55:26.149Z,1.99
2023-02-19T05:00:28.740Z,1.94
2023-02-19T05:05:31.575Z,1.90
2023-02-19T05:10:34.732Z,1.88
2023-02-19T05:15:37.387Z,1.87
2023-02-19T05:20:40.085Z,1.86
2023-02-19T05:25:42.724Z,1.84
2023-02-19T05:30:51.433Z,1.80
2023-02-19T05:35:55.986Z,1.76
2023-02-19T05:41:16.943Z,1.74
2023-02-19T05:46:22.840Z,1.74
2023-02-19T05:51:27.448Z,1.73
2023-02-19T05:56:33.253Z,1.74
2023-02-19T06:01:36.175Z,1.75
2023-02-19T06:06:39.276Z,1.77
2023-02-19T06:11:43.360Z,1.78
2023-02-19T06:16:46.054Z,1.78
2023-02-19T06:21:50.357Z,1.83
2023-02-19T06:26:52.943Z,1.88
2023-02-19T06:31:55.725Z,1.93
2023-02-19T06:36:59.256Z,2.02
2023-02-19T06:42:01.825Z,2.13
2023-02-19T06:47:05.464Z,2.24
2023-02-19T06:52:08.182Z,2.33
2023-02-19T06:57:10.778Z,2.40
2023-02-19T07:02:13.701Z,2.49
2023-02-19T07:07:17.638Z,2.57
2023-02-19T07:12:20.224Z,2.63
2023-02-19T07:17:22.820Z,2.68
2023-02-19T07:22:25.673Z,2.73
2023-02-19T07:27:28.300Z,2.84
2023-02-19T07:32:31.006Z,2.87
2023-02-19T07:37:34.696Z,2.87
2023-02-19T07:42:37.728Z,2.88
2023-02-19T07:47:40.377Z,2.95
2023-02-19T07:52:43.100Z,3.01
2023-02-19T07:57:45.731Z,3.11
2023-02-19T08:03:04.430Z,3.25
2023-02-19T08:08:09.615Z,3.36
2023-02-19T08:13:31.066Z,3.48
2023-02-19T08:18:35.214Z,3.82
2023-02-19T08:23:38.181Z,4.21
2023-02-19T08:28:41.828Z,4.41
2023-02-19T08:33:44.432Z,4.41
2023-02-19T08:38:47.818Z,4.39
2023-02-19T08:43:50.485Z,4.32
2023-02-19T08:48:53.206Z,4.15
2023-02-19T08:53:55.914Z,4.04
2023-02-19T08:58:58.526Z,3.97
2023-02-19T09:04:01.163Z,4.09
2023-02-19T09:09:03.940Z,4.37
2023-02-19T09:14:07.602Z,4.66
2023-02-19T09:19:10.213Z,4.90
2023-02-19T09:24:13.470Z,5.09
2023-02-19T09:29:21.158Z,5.35
2023-02-19T09:34:25.331Z,5.65
2023-02-19T09:39:29.388Z,5.83
2023-02-19T09:44:38.107Z,5.97
2023-02-19T09:49:49.820Z,6.08
2023-02-19T09:54:57.995Z,6.03
2023-02-19T10:00:07.233Z,5.97
2023-02-19T10:05:18.172Z,5.93
2023-02-19T10:10:27.378Z,5.96
2023-02-19T10:15:38.113Z,5.97
2023-02-19T10:20:40.838Z,5.94
2023-02-19T10:25:54.316Z,5.99
2023-02-19T10:31:00.342Z,5.99
2023-02-19T10:36:06.216Z,5.93
2023-02-19T10:41:23.075Z,5.90
2023-02-19T10:46:29.684Z,5.86
2023-02-19T10:51:35.168Z,6.00
2023-02-19T10:56:40.758Z,6.09
2023-02-19T11:02:04.013Z,6.20
2023-02-19T11:07:13.932Z,6.26
2023-02-19T11:12:33.385Z,6.48
2023-02-19T11:17:36.585Z,6.71
2023-02-19T11:22:41.988Z,6.76
2023-02-19T11:28:06.813Z,6.71
2023-02-19T11:33:24.376Z,6.74
2023-02-19T11:38:27.252Z,6.69
2023-02-19T11:43:53.372Z,6.62
2023-02-19T11:49:27.631Z,6.52
2023-02-19T11:54:39.433Z,6.42
2023-02-19T12:00:01.091Z,6.30
2023-02-19T12:05:20.531Z,6.25
2023-02-19T12:10:55.146Z,6.26
2023-02-19T12:16:04.910Z,6.33
2023-02-19T12:21:18.626Z,6.62
2023-02-19T12:26:30.257Z,6.75
2023-02-19T12:31:58.729Z,6.88
2023-02-19T12:37:33.320Z,6.94
2023-02-19T12:42:54.819Z,6.78
2023-02-19T12:48:06.316Z,6.64
2023-02-19T12:53:51.494Z,6.55
2023-02-19T12:59:01.131Z,6.52
2023-02-19T13:04:39.657Z,6.68
2023-02-19T13:09:55.280Z,6.72
2023-02-19T13:15:02.632Z,6.62
2023-02-19T13:20:20.360Z,6.39
2023-02-19T13:26:00.168Z,6.32
2023-02-19T13:31:11.908Z,6.34
2023-02-19T13:36:24.086Z,6.54
2023-02-19T13:41:27.152Z,6.63
2023-02-19T13:46:46.975Z,6.33
2023-02-19T13:51:57.213Z,5.93
2023-02-19T13:57:29.326Z,5.83
2023-02-19T14:02:35.148Z,5.82
2023-02-19T14:08:03.066Z,5.52
2023-02-19T14:13:10.046Z,5.09
2023-02-19T14:18:43.671Z,4.89
2023-02-19T14:23:56.711Z,4.67
2023-02-19T14:29:01.532Z,4.55
2023-02-19T14:34:14.112Z,4.60
2023-02-19T14:39:40.152Z,4.73
2023-02-19T14:44:57.419Z,4.79
2023-02-19T14:50:04.702Z,4.83
2023-02-19T14:55:20.725Z,4.68
2023-02-19T15:00:43.658Z,4.41
2023-02-19T15:05:46.687Z,4.41
2023-02-19T15:10:50.489Z,4.72
2023-02-19T15:15:55.376Z,4.82
2023-02-19T15:21:03.965Z,5.26
2023-02-19T15:26:21.289Z,5.16
2023-02-19T15:31:24.004Z,4.82
2023-02-19T15:36:33.970Z,4.46
2023-02-19T15:41:36.759Z,4.12
2023-02-19T15:46:41.622Z,3.88
2023-02-19T15:51:57.094Z,3.65
2023-02-19T15:57:06.007Z,3.44
2023-02-19T16:02:13.548Z,3.24
2023-02-19T16:07:32.756Z,3.07
2023-02-19T16:12:35.992Z,2.90
2023-02-19T16:17:43.161Z,2.73
2023-02-19T16:22:45.976Z,2.58
2023-02-19T16:27:48.872Z,2.45
2023-02-19T16:33:21.936Z,2.34
2023-02-19T16:38:24.709Z,2.20
2023-02-19T16:43:44.872Z,2.09
2023-02-19T16:48:48.366Z,2.01
2023-02-19T16:53:51.164Z,1.91
2023-02-19T16:58:53.907Z,1.81
2023-02-19T17:04:02.933Z,1.69
2023-02-19T17:09:09.175Z,1.57
2023-02-19T17:14:13.156Z,1.47
2023-02-19T17:19:18.301Z,1.37
2023-02-19T17:24:20.986Z,1.31
2023-02-19T17:29:24.551Z,1.26
2023-02-19T17:34:30.876Z,1.23
2023-02-19T17:39:33.514Z,1.19
2023-02-19T17:44:36.143Z,1.15
2023-02-19T17:49:38.765Z,1.10
2023-02-19T17:54:42.946Z,1.06
2023-02-19T17:59:45.639Z,1.01
2023-02-19T18:04:48.192Z,0.99
2023-02-19T18:09:50.772Z,0.96
2023-02-19T18:14:54.601Z,0.94
2023-02-19T18:19:57.182Z,0.91
2023-02-19T18:25:00.105Z,0.90
2023-02-19T18:30:03.302Z,0.90
2023-02-19T18:35:06.472Z,0.90
2023-02-19T18:40:11.456Z,0.89
2023-02-19T18:45:14.108Z,0.91
2023-02-19T18:50:18.239Z,0.92
2023-02-19T18:55:23.291Z,0.92
2023-02-19T19:00:26.659Z,0.87
2023-02-19T19:05:29.356Z,0.80
2023-02-19T19:10:31.956Z,0.76
2023-02-19T19:15:35.296Z,0.79
2023-02-19T19:20:37.983Z,0.83
2023-02-19T19:25:40.558Z,0.81
2023-02-19T19:30:43.257Z,0.80
2023-02-19T19:35:45.965Z,0.80
2023-02-19T19:40:48.756Z,0.81
2023-02-19T19:45:51.474Z,0.84
2023-02-19T19:50:56.654Z,0.91
2023-02-19T19:56:01.126Z,0.95
2023-02-19T20:01:07.070Z,0.94
2023-02-19T20:06:10.182Z,0.96
2023-02-19T20:11:13.096Z,0.95
2023-02-19T20:16:16.087Z,0.95
2023-02-19T20:21:18.852Z,1.00
2023-02-19T20:26:27.215Z,1.08
2023-02-19T20:31:33.836Z,1.19
2023-02-19T20:36:44.646Z,1.24
2023-02-19T20:41:50.545Z,1.25
2023-02-19T20:46:54.952Z,1.23
2023-02-19T20:52:00.494Z,1.25
2023-02-19T20:57:05.537Z,1.28
2023-02-19T21:02:16.779Z,1.32
2023-02-19T21:07:20.147Z,1.35
2023-02-19T21:12:23.265Z,1.41
2023-02-19T21:17:26.042Z,1.47
2023-02-19T21:22:31.181Z,1.47
2023-02-19T21:27:34.950Z,1.37
2023-02-19T21:32:37.565Z,1.29
2023-02-19T21:37:43.074Z,1.22
2023-02-19T21:42:46.412Z,1.18
2023-02-19T21:47:52.036Z,1.17
2023-02-19T21:52:55.276Z,1.16
2023-02-19T21:57:58.381Z,1.19
2023-02-19T22:03:01.023Z,1.22
2023-02-19T22:08:03.924Z,1.24
2023-02-19T22:13:06.542Z,1.25
2023-02-19T22:18:09.187Z,1.24
2023-02-19T22:23:11.750Z,1.24
2023-02-19T22:28:14.605Z,1.25
2023-02-19T22:33:17.186Z,1.28
2023-02-19T22:38:20.127Z,1.31
2023-02-19T22:43:22.698Z,1.32
2023-02-19T22:48:30.094Z,1.32
2023-02-19T22:53:33.092Z,1.29
2023-02-19T22:58:35.732Z,1.26
2023-02-19T23:03:55.995Z,1.25
2023-02-19T23:09:04.558Z,1.25
2023-02-19T23:14:07.767Z,1.25
2023-02-19T23:19:13.325Z,1.23
2023-02-19T23:24:17.894Z,1.23
2023-02-19T23:29:25.167Z,1.22
2023-02-19T23:34:28.584Z,1.23
2023-02-19T23:39:31.240Z,1.26
2023-02-19T23:44:33.959Z,1.30
2023-02-19T23:49:36.608Z,1.32
2023-02-19T23:54:39.452Z,1.30
2023-02-19T23:59:42.062Z,1.27
